Time;durP1;ratioP1;P1;durP2;ratioP2;P2;SDS_P1;SDS_P2;PMS_P1;PMS_P2;Temp;Humidity;BMP_temperature;BMP_pressure;BME280_temperature;BME280_humidity;BME280_pressure;Samples;Min_cycle;Max_cycle;Signal;HPM_P1;HPM_P2
2022/02/25 00:00:41;;;;;;;14.60;6.07;;;;;;;4.43;61.87;100593.06;5109972;28;20059;-73
2022/02/25 00:03:07;;;;;;;13.10;6.30;;;;;;;4.41;61.60;100603.75;5108744;28;20027;-73
2022/02/25 00:05:34;;;;;;;12.57;6.40;;;;;;;4.45;61.41;100607.13;5108772;28;20376;-73
2022/02/25 00:08:00;;;;;;;9.93;5.53;;;;;;;4.41;61.42;100605.56;5111585;27;20031;-73
2022/02/25 00:10:26;;;;;;;13.27;6.45;;;;;;;4.43;61.52;100607.19;5111602;28;20541;-73
2022/02/25 00:12:52;;;;;;;14.95;6.25;;;;;;;4.44;61.33;100614.22;5111891;28;20452;-73
2022/02/25 00:15:17;;;;;;;11.43;5.90;;;;;;;4.42;61.28;100610.78;5110051;28;20031;-73
2022/02/25 00:17:43;;;;;;;12.50;5.65;;;;;;;4.45;61.14;100604.47;5110981;28;20031;-73
2022/02/25 00:20:10;;;;;;;12.60;5.85;;;;;;;4.47;60.88;100606.06;5110968;28;20382;-73
2022/02/25 00:22:36;;;;;;;11.23;5.70;;;;;;;4.34;60.50;100586.50;5109161;28;20046;-73
2022/02/25 00:25:02;;;;;;;11.50;6.10;;;;;;;4.47;60.58;100608.72;5110551;27;20023;-73
2022/02/25 00:27:27;;;;;;;16.95;6.18;;;;;;;4.47;60.72;100597.22;5108923;28;20073;-73
2022/02/25 00:29:54;;;;;;;15.30;6.22;;;;;;;4.43;60.54;100599.22;5110382;28;20024;-74
2022/02/25 00:32:20;;;;;;;9.38;5.72;;;;;;;4.45;60.35;100588.53;5110121;28;20544;-73
2022/02/25 00:34:46;;;;;;;15.20;6.78;;;;;;;4.44;60.59;100590.31;5109920;28;20027;-69
2022/02/25 00:37:11;;;;;;;14.73;6.43;;;;;;;4.36;60.36;100584.56;5107691;28;20662;-68
2022/02/25 00:39:36;;;;;;;12.27;6.65;;;;;;;4.45;60.46;100593.84;5109186;28;20020;-68
2022/02/25 00:42:05;;;;;;;14.68;7.03;;;;;;;4.44;60.19;100592.97;5109021;28;20031;-68
2022/02/25 00:44:31;;;;;;;12.45;6.20;;;;;;;4.43;60.12;100583.31;5108978;28;20032;-68
2022/02/25 00:46:56;;;;;;;11.82;6.18;;;;;;;4.41;60.21;100579.00;5108951;28;20549;-68
2022/02/25 00:49:22;;;;;;;16.85;6.88;;;;;;;4.44;60.02;100586.78;5108481;28;20067;-68
2022/02/25 00:51:47;;;;;;;13.82;6.53;;;;;;;4.44;60.13;100584.13;5108681;28;20131;-68
2022/02/25 00:54:13;;;;;;;21.98;8.60;;;;;;;4.41;60.03;100579.88;5108709;28;20675;-68
2022/02/25 00:56:39;;;;;;;16.35;6.97;;;;;;;4.44;59.87;100584.13;5108798;27;20383;-68
2022/02/25 00:59:04;;;;;;;12.82;6.72;;;;;;;4.43;59.97;100583.31;5109417;28;20116;-68
2022/02/25 01:01:30;;;;;;;16.00;7.65;;;;;;;4.36;59.94;100563.34;5108897;28;20094;-68
2022/02/25 01:03:55;;;;;;;15.00;7.95;;;;;;;4.43;59.76;100567.38;5109188;28;20059;-67
2022/02/25 01:06:21;;;;;;;12.48;7.03;;;;;;;4.32;59.75;100553.00;5108845;28;20027;-68
2022/02/25 01:08:46;;;;;;;10.45;6.00;;;;;;;4.40;60.12;100583.47;5108275;28;20019;-68
2022/02/25 01:11:12;;;;;;;11.23;6.20;;;;;;;4.35;60.11;100571.38;5108332;28;20039;-68
2022/02/25 01:13:37;;;;;;;14.77;6.18;;;;;;;4.29;59.94;100562.00;5109606;28;20019;-73
2022/02/25 01:16:03;;;;;;;12.48;6.47;;;;;;;4.29;60.19;100564.66;5109570;28;20072;-73
2022/02/25 01:18:28;;;;;;;13.23;5.82;;;;;;;4.28;60.05;100562.94;5109340;28;20047;-73
2022/02/25 01:20:54;;;;;;;12.57;5.78;;;;;;;4.25;60.14;100560.47;5109446;27;20078;-73
2022/02/25 01:23:19;;;;;;;12.80;5.97;;;;;;;4.22;60.12;100551.81;5109379;28;20041;-73
2022/02/25 01:25:45;;;;;;;12.25;6.07;;;;;;;4.19;60.24;100562.59;5108021;28;20023;-73
2022/02/25 01:28:10;;;;;;;14.40;6.53;;;;;;;4.11;60.30;100551.59;5108914;28;20023;-73
2022/02/25 01:30:36;;;;;;;14.38;6.25;;;;;;;4.06;60.68;100543.03;5109496;28;20526;-73
2022/02/25 01:33:01;;;;;;;13.00;6.10;;;;;;;4.06;60.36;100551.00;5109340;28;20494;-73
2022/02/25 01:35:27;;;;;;;13.43;5.85;;;;;;;4.01;60.76;100542.44;5109136;28;20054;-73
2022/02/25 01:37:52;;;;;;;10.77;5.80;;;;;;;3.96;60.56;100539.19;5109509;28;20020;-74
2022/02/25 01:40:18;;;;;;;12.60;5.80;;;;;;;3.96;61.00;100545.38;5109591;28;20035;-73
2022/02/25 01:42:43;;;;;;;14.32;6.03;;;;;;;3.91;61.18;100547.44;5109436;28;20027;-73
2022/02/25 01:45:09;;;;;;;11.93;6.03;;;;;;;3.88;61.08;100549.41;5109670;28;20027;-74
2022/02/25 01:47:34;;;;;;;14.18;6.45;;;;;;;3.83;61.48;100554.97;5109467;28;20031;-73
2022/02/25 01:50:00;;;;;;;14.55;7.43;;;;;;;3.80;61.70;100556.91;5107523;28;20052;-73
2022/02/25 01:52:25;;;;;;;14.85;7.45;;;;;;;3.76;61.98;100558.03;5107425;28;20023;-73
2022/02/25 01:54:51;;;;;;;16.15;7.30;;;;;;;3.74;61.84;100560.78;5107991;28;20111;-67
2022/02/25 01:57:16;;;;;;;14.10;6.97;;;;;;;3.68;61.81;100553.16;5107816;28;20031;-68
2022/02/25 01:59:42;;;;;;;12.75;6.95;;;;;;;3.64;62.05;100543.69;5107902;28;20371;-68
2022/02/25 02:02:09;;;;;;;16.67;7.47;;;;;;;3.67;62.45;100555.91;5108351;28;20451;-67
2022/02/25 02:04:35;;;;;;;18.08;8.27;;;;;;;3.57;62.56;100537.00;5108211;28;20105;-68
2022/02/25 02:07:01;;;;;;;12.32;6.80;;;;;;;3.57;62.80;100542.31;5108115;28;20034;-68
2022/02/25 02:09:27;;;;;;;11.82;6.32;;;;;;;3.49;62.71;100533.94;5108190;28;20027;-68
2022/02/25 02:11:54;;;;;;;12.00;6.15;;;;;;;3.49;63.35;100543.69;5106358;28;20039;-68
2022/02/25 02:14:23;;;;;;;15.18;6.00;;;;;;;3.49;63.38;100543.69;5107796;28;20027;-68
2022/02/25 02:16:51;;;;;;;12.50;6.57;;;;;;;3.45;63.56;100548.28;5107630;28;20035;-68
2022/02/25 02:19:19;;;;;;;11.70;6.20;;;;;;;3.39;64.12;100535.38;5108440;28;20044;-68
2022/02/25 02:21:46;;;;;;;12.25;6.65;;;;;;;3.40;63.98;100534.44;5111552;28;20023;-68
2022/02/25 02:24:14;;;;;;;13.23;6.65;;;;;;;3.38;64.36;100533.66;5112120;27;20039;-68
2022/02/25 02:26:40;;;;;;;13.13;5.78;;;;;;;3.40;64.81;100537.09;5112065;28;20467;-68
2022/02/25 02:29:07;;;;;;;16.58;6.35;;;;;;;3.38;64.93;100531.00;5111990;28;20035;-68
2022/02/25 02:31:34;;;;;;;16.30;6.50;;;;;;;3.37;64.88;100541.69;5111934;28;20028;-68
2022/02/25 02:33:59;;;;;;;9.52;6.10;;;;;;;3.35;65.16;100538.28;5111611;28;20024;-68
2022/02/25 02:36:25;;;;;;;13.00;6.13;;;;;;;3.29;65.38;100531.50;5111295;28;20042;-68
2022/02/25 02:38:51;;;;;;;11.60;6.43;;;;;;;3.34;65.20;100537.44;5111154;28;20038;-68
2022/02/25 02:41:17;;;;;;;12.07;6.28;;;;;;;3.33;65.64;100537.50;5111416;28;20031;-68
2022/02/25 02:43:43;;;;;;;14.77;6.47;;;;;;;3.31;66.05;100544.69;5111237;28;20045;-68
2022/02/25 02:46:09;;;;;;;12.18;6.13;;;;;;;3.31;66.34;100537.59;5111553;28;20034;-68
2022/02/25 02:48:35;;;;;;;11.55;6.15;;;;;;;3.33;66.09;100537.50;5111318;28;20031;-69
2022/02/25 02:51:01;;;;;;;13.48;6.90;;;;;;;3.23;66.15;100523.94;5110879;28;20077;-68
2022/02/25 02:53:27;;;;;;;14.93;6.75;;;;;;;3.17;66.31;100510.13;5111142;28;20028;-68
2022/02/25 02:55:53;;;;;;;12.13;6.38;;;;;;;3.32;66.17;100528.69;5111148;28;20023;-68
2022/02/25 02:58:19;;;;;;;12.63;7.00;;;;;;;3.27;66.40;100521.94;5111083;28;20038;-68
2022/02/25 03:00:47;;;;;;;17.55;6.85;;;;;;;3.36;66.68;100540.00;5112572;28;20052;-72
2022/02/25 03:03:13;;;;;;;15.70;7.15;;;;;;;3.32;66.23;100531.34;5112681;28;20055;-72
2022/02/25 03:05:40;;;;;;;11.77;7.05;;;;;;;3.36;66.76;100537.34;5111399;28;20755;-72
2022/02/25 03:08:05;;;;;;;13.60;6.75;;;;;;;3.36;66.52;100529.41;5111808;28;20492;-72
2022/02/25 03:10:35;;;;;;;22.85;8.43;;;;;;;3.35;66.49;100523.22;5111445;28;20039;-68
2022/02/25 03:13:02;;;;;;;18.42;7.15;;;;;;;3.31;66.79;100520.81;5111323;28;20039;-68
2022/02/25 03:15:27;;;;;;;15.68;6.78;;;;;;;3.37;66.56;100539.91;5111505;28;20035;-68
2022/02/25 03:17:53;;;;;;;15.55;7.35;;;;;;;3.38;66.85;100538.09;5110597;28;20028;-73
2022/02/25 03:20:19;;;;;;;15.55;6.72;;;;;;;3.31;67.01;100528.78;5111567;28;20056;-73
2022/02/25 03:22:45;;;;;;;13.38;7.95;;;;;;;3.38;66.96;100532.78;5111418;27;20072;-68
2022/02/25 03:25:13;;;;;;;14.43;7.47;;;;;;;3.35;67.06;100520.56;5110780;28;20125;-68
2022/02/25 03:27:40;;;;;;;18.27;7.93;;;;;;;3.31;67.17;100520.81;5110270;28;20028;-68
2022/02/25 03:30:06;;;;;;;21.95;8.15;;;;;;;3.37;67.04;100528.44;5110343;28;20539;-68
2022/02/25 03:32:32;;;;;;;15.85;7.68;;;;;;;3.34;67.52;100533.91;5108606;28;20023;-68
2022/02/25 03:34:57;;;;;;;12.30;7.22;;;;;;;3.27;67.59;100520.16;5110465;28;20389;-69
2022/02/25 03:37:23;;;;;;;17.42;7.97;;;;;;;3.32;67.61;100533.16;5110481;28;20044;-69
2022/02/25 03:39:48;;;;;;;16.42;7.93;;;;;;;3.29;67.79;100520.06;5110359;28;20440;-74
2022/02/25 03:42:14;;;;;;;19.00;9.40;;;;;;;3.33;67.99;100524.25;5111569;28;20111;-74
2022/02/25 03:44:40;;;;;;;15.18;8.25;;;;;;;3.31;67.86;100518.19;5111501;28;20020;-74
2022/02/25 03:47:05;;;;;;;19.92;8.85;;;;;;;3.32;68.04;100525.22;5111685;28;20035;-74
2022/02/25 03:49:31;;;;;;;21.35;8.73;;;;;;;3.30;67.97;100517.34;5110617;27;20026;-74
2022/02/25 03:51:56;;;;;;;17.17;9.18;;;;;;;3.32;68.08;100514.59;5111449;28;20030;-74
2022/02/25 03:54:22;;;;;;;18.42;9.30;;;;;;;3.32;67.98;100504.00;5111558;28;20111;-74
2022/02/25 03:56:47;;;;;;;18.45;10.23;;;;;;;3.29;68.45;100493.56;5111129;28;20471;-74
2022/02/25 03:59:13;;;;;;;22.65;9.98;;;;;;;3.32;68.19;100490.75;5111190;28;20042;-74
2022/02/25 04:01:39;;;;;;;20.08;9.18;;;;;;;3.32;68.07;100486.28;5110631;28;20098;-67
2022/02/25 04:04:04;;;;;;;18.25;9.32;;;;;;;3.34;68.70;100486.19;5109784;28;20023;-68
2022/02/25 04:06:30;;;;;;;20.25;10.27;;;;;;;3.26;68.49;100470.72;5109663;28;20080;-68
2022/02/25 04:08:55;;;;;;;19.13;9.52;;;;;;;3.29;68.40;100475.03;5109312;28;20493;-68
2022/02/25 04:11:21;;;;;;;21.90;9.73;;;;;;;3.28;68.34;100484.75;5109282;28;20046;-68
2022/02/25 04:13:48;;;;;;;21.05;9.63;;;;;;;3.25;68.79;100484.06;5109763;28;20093;-68
2022/02/25 04:16:14;;;;;;;18.00;10.10;;;;;;;3.32;68.78;100494.25;5109377;28;20372;-68
2022/02/25 04:18:40;;;;;;;22.80;10.73;;;;;;;3.29;68.61;100494.41;5108443;28;20072;-72
2022/02/25 04:21:06;;;;;;;22.92;10.38;;;;;;;3.32;69.06;100498.72;5110144;28;20389;-73
2022/02/25 04:23:31;;;;;;;21.00;10.07;;;;;;;3.28;68.69;100491.84;5109643;28;20027;-73
2022/02/25 04:25:56;;;;;;;26.83;11.23;;;;;;;3.31;68.91;100499.63;5110109;28;20071;-73
2022/02/25 04:28:22;;;;;;;21.25;10.57;;;;;;;3.24;69.02;100493.81;5110313;28;20031;-74
2022/02/25 04:30:47;;;;;;;24.15;11.35;;;;;;;3.29;68.72;100493.56;5110051;28;20030;-73
2022/02/25 04:33:13;;;;;;;18.48;10.45;;;;;;;3.28;69.02;100491.84;5110407;28;20023;-72
2022/02/25 04:35:39;;;;;;;27.48;11.13;;;;;;;3.27;69.18;100495.44;5108462;28;20039;-72
2022/02/25 04:38:05;;;;;;;24.55;11.35;;;;;;;3.20;69.13;100499.38;5110093;28;20088;-72
2022/02/25 04:40:31;;;;;;;20.77;11.40;;;;;;;3.24;68.99;100511.50;5110033;28;20031;-72
2022/02/25 04:42:56;;;;;;;20.48;11.52;;;;;;;3.23;69.47;100504.50;5107926;28;20110;-72
2022/02/25 04:45:22;;;;;;;28.25;12.05;;;;;;;3.17;69.45;100487.16;5109480;28;20028;-72
2022/02/25 04:47:48;;;;;;;28.55;11.63;;;;;;;3.16;69.87;100480.13;5107249;28;20394;-72
2022/02/25 04:50:15;;;;;;;22.05;12.02;;;;;;;3.15;69.45;100486.38;5106156;28;20066;-73
2022/02/25 04:52:42;;;;;;;23.98;11.80;;;;;;;3.16;69.45;100479.28;5108113;28;20023;-72
2022/02/25 04:55:09;;;;;;;20.85;11.93;;;;;;;3.16;69.61;100479.28;5109244;28;20035;-73
2022/02/25 04:57:34;;;;;;;23.08;11.93;;;;;;;3.12;69.51;100473.28;5109276;28;20023;-72
2022/02/25 04:59:59;;;;;;;25.27;12.68;;;;;;;3.16;69.29;100476.63;5109276;28;20050;-73
2022/02/25 05:02:25;;;;;;;24.08;11.73;;;;;;;3.12;69.57;100481.25;5107638;28;20609;-73
2022/02/25 05:04:51;;;;;;;21.98;11.55;;;;;;;3.14;69.61;100487.31;5108629;28;20062;-72
2022/02/25 05:07:16;;;;;;;29.08;13.77;;;;;;;3.12;69.61;100483.03;5109058;28;20038;-74
2022/02/25 05:09:41;;;;;;;24.80;12.80;;;;;;;3.14;69.91;100494.41;5108797;28;20024;-73
2022/02/25 05:12:07;;;;;;;25.20;13.00;;;;;;;3.10;69.72;100491.09;5108985;28;20065;-73
2022/02/25 05:20:16;;;;;;;23.42;12.82;;;;;;;3.04;69.86;100520.56;5109050;28;20164;-72
2022/02/25 05:22:42;;;;;;;25.65;12.75;;;;;;;3.04;69.75;100538.22;5108524;28;20478;-73
2022/02/25 05:25:09;;;;;;;24.25;13.35;;;;;;;3.01;70.35;100530.44;5107296;28;20072;-73
2022/02/25 05:27:35;;;;;;;28.45;14.30;;;;;;;3.00;70.35;100534.88;5108211;28;20076;-72
2022/02/25 05:30:03;;;;;;;24.00;13.00;;;;;;;2.92;70.33;100522.97;5107170;28;20026;-73
2022/02/25 05:32:28;;;;;;;24.55;12.45;;;;;;;3.01;70.28;100533.97;5107007;28;20080;-73
2022/02/25 05:34:53;;;;;;;24.25;12.73;;;;;;;2.96;70.06;100524.56;5109146;28;20024;-73
2022/02/25 05:37:19;;;;;;;29.33;14.35;;;;;;;2.89;70.16;100529.31;5109212;28;20027;-72
2022/02/25 05:39:44;;;;;;;27.40;13.32;;;;;;;2.95;70.46;100550.19;5109662;28;20083;-73
2022/02/25 05:42:10;;;;;;;27.08;13.32;;;;;;;2.87;70.65;100547.06;5109391;28;20034;-73
2022/02/25 05:44:35;;;;;;;24.67;14.00;;;;;;;2.94;70.75;100558.22;5109378;28;20030;-73
2022/02/25 05:47:01;;;;;;;25.30;14.15;;;;;;;2.93;70.48;100548.56;5109490;28;20028;-73
2022/02/25 05:49:27;;;;;;;28.90;14.23;;;;;;;2.92;70.64;100558.28;5109449;28;20038;-73
2022/02/25 05:51:52;;;;;;;24.63;12.70;;;;;;;2.89;70.67;100552.28;5109051;28;20035;-73
2022/02/25 05:54:17;;;;;;;28.17;14.38;;;;;;;2.75;70.56;100518.59;5109304;28;20028;-73
2022/02/25 05:56:43;;;;;;;23.75;14.20;;;;;;;2.88;70.80;100538.19;5112671;28;20039;-73
2022/02/25 05:59:08;;;;;;;26.58;13.45;;;;;;;2.80;70.58;100524.50;5113631;28;20786;-73
2022/02/25 06:01:34;;;;;;;27.58;14.50;;;;;;;2.77;70.71;100519.34;5113083;28;20106;-73
2022/02/25 06:03:59;;;;;;;26.48;13.90;;;;;;;2.82;70.97;100543.81;5111904;28;20026;-73
2022/02/25 06:06:25;;;;;;;26.27;13.68;;;;;;;2.75;70.92;100528.34;5112522;28;20019;-73
2022/02/25 06:08:50;;;;;;;25.73;13.88;;;;;;;2.80;70.77;100527.13;5112180;28;20026;-73
2022/02/25 06:11:16;;;;;;;27.75;13.98;;;;;;;2.78;70.60;100529.03;5111165;28;20131;-73
2022/02/25 06:13:41;;;;;;;27.65;13.07;;;;;;;2.80;70.56;100540.38;5110362;28;20020;-73
2022/02/25 06:16:06;;;;;;;28.30;14.70;;;;;;;2.75;70.75;100528.34;5112359;28;20016;-72
2022/02/25 06:18:34;;;;;;;25.88;13.07;;;;;;;2.66;71.18;100516.44;5112374;28;20107;-72
2022/02/25 06:21:00;;;;;;;26.65;14.13;;;;;;;2.71;71.14;100529.44;5110169;28;20025;-72
2022/02/25 06:23:25;;;;;;;26.33;14.05;;;;;;;2.67;71.24;100527.88;5112229;28;20027;-72
2022/02/25 06:25:51;;;;;;;21.50;12.60;;;;;;;2.67;71.44;100535.84;5112070;28;20070;-72
2022/02/25 06:28:16;;;;;;;28.23;14.25;;;;;;;2.61;71.73;100557.31;5112484;28;20020;-72
2022/02/25 06:30:42;;;;;;;24.55;13.77;;;;;;;2.55;71.85;100552.34;5112086;28;20023;-72
2022/02/25 06:33:07;;;;;;;28.85;14.65;;;;;;;2.51;72.39;100546.34;5112349;28;20039;-72
2022/02/25 06:35:34;;;;;;;24.75;13.68;;;;;;;2.55;72.70;100553.22;5111957;28;20464;-72
2022/02/25 06:37:59;;;;;;;28.08;13.98;;;;;;;2.42;72.80;100530.09;5112373;27;20035;-72
2022/02/25 06:40:26;;;;;;;27.75;13.57;;;;;;;2.56;72.72;100554.03;5112092;28;20092;-72
2022/02/25 06:42:52;;;;;;;24.10;13.60;;;;;;;2.55;72.49;100550.56;5111707;28;20027;-72
2022/02/25 06:45:20;;;;;;;31.88;14.05;;;;;;;2.55;72.88;100557.63;5112149;28;20129;-72
2022/02/25 06:47:46;;;;;;;27.50;13.05;;;;;;;2.51;72.92;100558.72;5111960;28;20736;-72
2022/02/25 06:50:13;;;;;;;27.90;14.07;;;;;;;2.55;72.85;100558.50;5111695;28;20044;-72
2022/02/25 06:52:39;;;;;;;25.05;13.98;;;;;;;2.53;73.11;100547.13;5110073;28;20059;-72
2022/02/25 06:55:05;;;;;;;24.92;14.13;;;;;;;2.58;73.02;100552.19;5111673;28;20148;-72
2022/02/25 06:57:30;;;;;;;26.00;13.23;;;;;;;2.66;73.01;100568.50;5111774;28;20126;-72
2022/02/25 06:59:56;;;;;;;31.95;14.20;;;;;;;2.68;72.92;100564.00;5110145;28;20026;-72
2022/02/25 07:02:21;;;;;;;28.17;13.27;;;;;;;2.72;73.16;100562.91;5111586;28;20046;-69
2022/02/25 07:04:47;;;;;;;30.73;14.45;;;;;;;2.75;72.64;100568.03;5110553;28;20035;-68
2022/02/25 07:07:12;;;;;;;33.38;14.25;;;;;;;2.76;72.70;100575.03;5108611;28;20035;-69
2022/02/25 07:09:40;;;;;;;23.50;13.68;;;;;;;2.87;72.49;100593.91;5110714;28;20045;-69
2022/02/25 07:12:06;;;;;;;28.25;13.25;;;;;;;2.91;72.37;100606.91;5110941;28;20067;-69
2022/02/25 07:14:33;;;;;;;25.52;13.73;;;;;;;2.98;72.34;100604.78;5109030;28;20077;-68
2022/02/25 07:16:59;;;;;;;31.90;14.95;;;;;;;2.99;72.14;100601.19;5108863;28;20035;-69
2022/02/25 07:19:27;;;;;;;27.00;13.73;;;;;;;3.11;71.99;100616.44;5110376;28;20474;-69
2022/02/25 07:21:53;;;;;;;28.35;14.02;;;;;;;3.16;71.51;100617.06;5110803;28;20527;-69
2022/02/25 07:24:18;;;;;;;28.67;13.90;;;;;;;3.22;71.80;100627.34;5110814;28;20039;-68
2022/02/25 07:26:45;;;;;;;26.50;13.07;;;;;;;3.23;70.00;100610.50;5110079;28;20475;-69
2022/02/25 07:29:11;;;;;;;28.90;14.82;;;;;;;3.34;70.21;100632.84;5110328;27;20042;-69
2022/02/25 07:31:40;;;;;;;29.95;13.65;;;;;;;3.39;70.29;100635.25;5110150;28;20034;-69
2022/02/25 07:34:06;;;;;;;23.88;12.25;;;;;;;3.48;69.67;100648.03;5108032;28;20043;-69
2022/02/25 07:36:33;;;;;;;24.60;13.68;;;;;;;3.55;69.64;100660.00;5108661;28;20387;-69
2022/02/25 07:38:58;;;;;;;21.20;14.13;;;;;;;3.61;69.37;100655.22;5109793;28;20024;-69
2022/02/25 07:41:24;;;;;;;31.63;14.55;;;;;;;3.69;69.31;100657.47;5108847;28;20039;-69
2022/02/25 07:43:50;;;;;;;26.13;14.65;;;;;;;3.77;69.25;100650.78;5110034;28;20382;-70
2022/02/25 07:46:15;;;;;;;20.13;13.18;;;;;;;4.05;68.40;100656.31;5108570;28;20386;-69
2022/02/25 07:48:41;;;;;;;27.33;14.05;;;;;;;4.55;65.05;100646.28;5109547;28;20027;-69
2022/02/25 07:51:07;;;;;;;29.52;13.73;;;;;;;4.80;64.89;100650.19;5109768;28;20052;-70
2022/02/25 07:53:34;;;;;;;27.67;14.15;;;;;;;5.30;64.63;100655.97;5109582;28;20027;-69
2022/02/25 07:55:59;;;;;;;25.27;14.13;;;;;;;5.97;61.73;100638.41;5109485;28;20116;-70
2022/02/25 07:58:25;;;;;;;21.65;12.35;;;;;;;7.19;56.94;100642.66;5110006;28;20192;-70
2022/02/25 08:00:50;;;;;;;27.77;14.18;;;;;;;8.35;52.75;100637.81;5109774;28;20027;-70
2022/02/25 08:03:16;;;;;;;23.98;13.90;;;;;;;8.79;51.95;100621.97;5109586;28;20038;-70
2022/02/25 08:05:41;;;;;;;24.83;14.40;;;;;;;9.60;49.50;100630.78;5107950;28;20031;-70
2022/02/25 08:08:07;;;;;;;24.90;14.40;;;;;;;10.02;48.96;100630.91;5108004;28;20027;-70
2022/02/25 08:10:34;;;;;;;29.73;14.93;;;;;;;10.57;47.87;100619.22;5109631;28;20378;-70
2022/02/25 08:13:00;;;;;;;23.77;14.23;;;;;;;11.34;46.23;100641.16;5109245;28;20069;-70
2022/02/25 08:15:26;;;;;;;23.77;14.70;;;;;;;11.66;44.70;100632.16;5109547;28;20034;-70
2022/02/25 08:17:52;;;;;;;25.10;15.30;;;;;;;12.08;43.00;100633.75;5107148;28;20396;-70
2022/02/25 08:20:17;;;;;;;24.42;14.15;;;;;;;12.44;42.72;100631.31;5109160;28;20027;-70
2022/02/25 08:22:43;;;;;;;23.25;13.52;;;;;;;12.69;41.66;100625.41;5108834;28;20019;-70
2022/02/25 08:25:10;;;;;;;25.17;14.38;;;;;;;12.85;40.64;100638.31;5109232;28;20078;-69
2022/02/25 08:27:35;;;;;;;19.30;13.00;;;;;;;12.15;42.16;100646.53;5109042;27;20479;-69
2022/02/25 08:30:06;;;;;;;20.73;12.95;;;;;;;11.58;42.65;100659.69;5107370;28;20038;-70
2022/02/25 08:32:31;;;;;;;22.13;13.45;;;;;;;10.95;44.32;100671.41;5108957;28;20482;-69
2022/02/25 08:34:57;;;;;;;22.10;12.07;;;;;;;10.48;45.33;100662.91;5109164;28;20031;-69
2022/02/25 08:37:22;;;;;;;24.13;13.85;;;;;;;10.03;46.52;100661.22;5107792;28;20031;-69
2022/02/25 08:39:48;;;;;;;24.60;12.90;;;;;;;9.56;47.73;100664.13;5108860;28;20043;-69
2022/02/25 08:42:14;;;;;;;21.38;12.20;;;;;;;9.16;48.81;100677.06;5108856;28;20050;-69
2022/02/25 08:44:42;;;;;;;20.65;11.43;;;;;;;8.76;49.86;100657.81;5108489;28;20020;-69
2022/02/25 08:47:08;;;;;;;21.90;12.85;;;;;;;8.67;49.84;100663.00;5108882;28;20034;-69
2022/02/25 08:49:33;;;;;;;22.08;12.27;;;;;;;8.45;50.62;100663.72;5108590;28;20044;-69
2022/02/25 08:51:58;;;;;;;21.08;11.55;;;;;;;8.23;50.87;100650.25;5108530;28;20027;-69
2022/02/25 08:54:24;;;;;;;19.15;11.50;;;;;;;8.12;51.17;100659.97;5108865;28;20051;-69
2022/02/25 08:56:49;;;;;;;20.52;10.68;;;;;;;8.21;51.36;100657.50;5108476;28;20096;-69
2022/02/25 08:59:15;;;;;;;19.80;9.75;;;;;;;7.94;51.92;100648.81;5107381;28;20035;-69
2022/02/25 09:01:40;;;;;;;18.92;10.68;;;;;;;7.88;52.09;100659.06;5107001;28;20024;-69
2022/02/25 09:04:06;;;;;;;19.35;10.93;;;;;;;7.63;52.65;100632.38;5108870;28;20451;-69
2022/02/25 09:06:32;;;;;;;19.17;11.05;;;;;;;7.65;53.29;100643.81;5108648;28;20032;-69
2022/02/25 09:08:58;;;;;;;18.63;10.45;;;;;;;7.68;53.54;100651.63;5108705;28;20019;-69
2022/02/25 09:11:24;;;;;;;21.52;10.40;;;;;;;7.65;53.37;100649.16;5108288;28;20422;-69
2022/02/25 09:13:50;;;;;;;22.38;10.23;;;;;;;7.57;53.18;100635.47;5108319;28;20065;-69
2022/02/25 09:16:17;;;;;;;21.60;11.57;;;;;;;7.80;53.21;100656.94;5108474;28;20043;-69
2022/02/25 09:18:42;;;;;;;21.05;9.98;;;;;;;7.95;52.43;100642.50;5107016;28;20058;-69
2022/02/25 09:21:07;;;;;;;30.00;10.93;;;;;;;7.95;52.38;100638.97;5108594;28;20055;-69
2022/02/25 09:23:33;;;;;;;19.98;10.48;;;;;;;8.19;52.17;100627.34;5107077;28;20024;-69
2022/02/25 09:25:59;;;;;;;19.73;10.63;;;;;;;8.23;51.91;100625.34;5108843;28;20802;-69
2022/02/25 09:28:24;;;;;;;22.17;11.15;;;;;;;8.51;51.81;100659.75;5108338;28;20560;-69
2022/02/25 09:30:51;;;;;;;21.27;10.85;;;;;;;8.78;51.39;100652.38;5107514;28;20036;-69
2022/02/25 09:33:16;;;;;;;18.73;10.40;;;;;;;9.34;50.46;100667.63;5108009;28;20023;-69
2022/02/25 09:35:42;;;;;;;18.58;10.15;;;;;;;9.90;48.96;100661.34;5107728;28;20034;-69
2022/02/25 09:38:08;;;;;;;18.05;10.70;;;;;;;10.51;47.39;100666.16;5108182;28;20032;-69
2022/02/25 09:40:36;;;;;;;23.02;10.73;;;;;;;10.79;46.35;100668.28;5106522;28;20019;-69
2022/02/25 09:43:04;;;;;;;17.42;10.93;;;;;;;10.88;45.90;100656.78;5107925;28;20046;-69
2022/02/25 09:45:29;;;;;;;20.27;10.82;;;;;;;10.85;45.82;100638.25;5108032;28;20100;-69
2022/02/25 09:47:55;;;;;;;23.60;11.05;;;;;;;11.06;45.82;100659.75;5106303;28;20031;-69
2022/02/25 09:50:23;;;;;;;19.50;10.75;;;;;;;11.00;45.84;100662.97;5107623;28;20043;-69
2022/02/25 09:52:49;;;;;;;21.00;11.02;;;;;;;10.96;45.62;100658.81;5107210;28;20036;-69
2022/02/25 09:55:20;;;;;;;22.25;10.75;;;;;;;11.18;44.97;100677.50;5107913;28;20046;-69
2022/02/25 09:57:46;;;;;;;21.67;10.25;;;;;;;11.19;44.63;100655.91;5107767;28;20027;-69
2022/02/25 10:00:12;;;;;;;22.33;10.75;;;;;;;11.82;43.75;100665.66;5107970;28;20040;-69
2022/02/25 10:02:40;;;;;;;19.42;9.93;;;;;;;12.66;42.39;100667.88;5107693;28;20017;-70
2022/02/25 10:05:11;;;;;;;17.00;9.68;;;;;;;13.33;40.99;100663.41;5105316;28;20136;-70
2022/02/25 10:07:38;;;;;;;20.55;9.32;;;;;;;14.17;39.47;100663.28;5107823;28;20565;-70
2022/02/25 10:10:05;;;;;;;15.27;9.63;;;;;;;15.03;37.77;100662.78;5106091;28;20027;-70
2022/02/25 10:12:31;;;;;;;13.57;8.90;;;;;;;15.39;36.78;100662.63;5107864;28;20028;-69
2022/02/25 10:14:56;;;;;;;23.77;11.02;;;;;;;15.20;36.91;100665.47;5107644;28;20055;-70
2022/02/25 10:17:24;;;;;;;18.52;10.48;;;;;;;15.54;35.70;100662.88;5107608;28;20050;-69
2022/02/25 10:19:58;;;;;;;19.38;10.23;;;;;;;14.94;36.99;100672.66;5107445;28;20023;-70
2022/02/25 10:22:30;;;;;;;17.95;9.93;;;;;;;15.47;36.20;100668.09;5105184;28;20026;-69
2022/02/25 10:24:58;;;;;;;18.10;9.80;;;;;;;16.56;34.50;100660.09;5107562;28;20074;-69
2022/02/25 10:27:32;;;;;;;18.42;10.07;;;;;;;17.67;33.09;100642.22;5107554;28;20054;-68
2022/02/25 10:30:04;;;;;;;17.33;10.35;;;;;;;18.95;31.68;100651.75;5107527;28;20348;-69
2022/02/25 10:32:35;;;;;;;22.33;10.25;;;;;;;20.16;30.01;100644.19;5107577;28;20020;-69
2022/02/25 10:35:19;;;;;;;15.30;9.73;;;;;;;20.79;28.85;100640.81;5105434;28;20360;-69
2022/02/25 10:38:08;;;;;;;16.10;9.73;;;;;;;21.44;27.76;100644.22;5105903;28;20027;-70
2022/02/25 10:40:36;;;;;;;20.95;9.95;;;;;;;21.79;27.18;100631.50;5107731;28;20069;-69
2022/02/25 10:43:07;;;;;;;15.13;9.10;;;;;;;20.92;28.35;100621.03;5110998;28;20435;-70
2022/02/25 10:45:39;;;;;;;15.57;9.65;;;;;;;20.59;28.56;100637.00;5112015;27;20027;-69
2022/02/25 10:48:14;;;;;;;17.00;10.30;;;;;;;19.79;29.68;100635.22;5111654;28;20039;-71
2022/02/25 10:50:42;;;;;;;21.77;10.50;;;;;;;18.75;31.04;100636.06;5108953;28;20080;-70
2022/02/25 10:53:09;;;;;;;15.45;9.55;;;;;;;18.30;31.74;100635.94;5109693;28;20076;-70
2022/02/25 10:55:34;;;;;;;15.30;9.18;;;;;;;17.46;33.34;100628.38;5111716;28;20071;-70
2022/02/25 10:58:01;;;;;;;17.45;10.27;;;;;;;16.80;34.19;100643.06;5111198;28;20062;-70
2022/02/25 11:00:27;;;;;;;18.40;10.73;;;;;;;16.08;35.35;100637.34;5111283;27;20122;-70
2022/02/25 11:02:56;;;;;;;20.25;10.15;;;;;;;15.45;36.28;100634.13;5110366;28;20023;-70
2022/02/25 11:05:26;;;;;;;15.20;9.95;;;;;;;15.01;37.55;100641.31;5108701;28;20019;-71
2022/02/25 11:07:55;;;;;;;21.27;10.88;;;;;;;14.36;38.93;100628.16;5111119;27;20093;-71
2022/02/25 11:10:24;;;;;;;17.92;10.27;;;;;;;13.83;40.04;100631.66;5111016;28;20467;-71
2022/02/25 11:12:50;;;;;;;23.73;10.13;;;;;;;13.45;40.69;100638.00;5111085;28;20036;-71
2022/02/25 11:15:22;;;;;;;16.35;9.57;;;;;;;13.12;41.40;100636.63;5110944;28;20072;-71
2022/02/25 11:17:48;;;;;;;19.63;10.23;;;;;;;13.02;41.76;100643.88;5110786;28;20028;-71
2022/02/25 11:20:19;;;;;;;18.80;9.80;;;;;;;12.66;42.81;100627.53;5111848;28;20027;-71